createdAt,value
2022-11-13T00:01:09.124Z,100.00
2022-11-13T00:06:59.357Z,100.00
2022-11-13T00:12:48.883Z,100.00
2022-11-13T00:18:37.269Z,100.00
2022-11-13T00:24:24.802Z,100.00
2022-11-13T00:30:19.069Z,100.00
2022-11-13T00:36:10.316Z,100.00
2022-11-13T00:41:58.438Z,100.00
2022-11-13T00:47:47.895Z,100.00
2022-11-13T00:53:35.435Z,100.00
2022-11-13T00:59:23.466Z,100.00
2022-11-13T01:05:13.015Z,100.00
2022-11-13T01:11:01.435Z,100.00
2022-11-13T01:16:49.856Z,100.00
2022-11-13T01:22:38.805Z,100.00
2022-11-13T01:28:26.734Z,100.00
2022-11-13T01:34:14.600Z,100.00
2022-11-13T01:40:04.625Z,100.00
2022-11-13T01:46:10.122Z,100.00
2022-11-13T01:51:59.722Z,100.00
2022-11-13T01:57:49.851Z,100.00
2022-11-13T02:03:37.606Z,100.00
2022-11-13T02:09:28.352Z,100.00
2022-11-13T02:15:18.911Z,100.00
2022-11-13T02:21:15.204Z,100.00
2022-11-13T02:27:09.805Z,100.00
2022-11-13T02:32:58.737Z,100.00
2022-11-13T02:38:47.439Z,100.00
2022-11-13T02:44:36.924Z,100.00
2022-11-13T02:50:24.428Z,100.00
2022-11-13T02:56:12.520Z,100.00
2022-11-13T03:02:01.823Z,100.00
2022-11-13T03:07:49.507Z,100.00
2022-11-13T03:13:37.976Z,100.00
2022-11-13T03:19:27.439Z,100.00
2022-11-13T03:25:15.795Z,100.00
2022-11-13T03:31:04.481Z,100.00
2022-11-13T03:36:53.975Z,100.00
2022-11-13T03:42:41.433Z,100.00
2022-11-13T03:48:29.674Z,100.00
2022-11-13T03:54:19.162Z,100.00
2022-11-13T04:00:07.628Z,100.00
2022-11-13T04:05:55.447Z,100.00
2022-11-13T04:11:44.930Z,100.00
2022-11-13T04:17:32.705Z,100.00
2022-11-13T04:23:20.449Z,100.00
2022-11-13T04:29:09.951Z,100.00
2022-11-13T04:34:57.524Z,100.00
2022-11-13T04:40:45.858Z,100.00
2022-11-13T04:46:34.702Z,100.00
2022-11-13T04:52:22.659Z,100.00
2022-11-13T04:58:10.522Z,100.00
2022-11-13T05:03:59.746Z,100.00
2022-11-13T05:09:47.467Z,100.00
2022-11-13T05:15:35.724Z,100.00
2022-11-13T05:21:25.171Z,100.00
2022-11-13T05:27:17.092Z,100.00
2022-11-13T05:33:05.588Z,100.00
2022-11-13T05:38:54.707Z,100.00
2022-11-13T05:44:42.594Z,100.00
2022-11-13T05:50:30.691Z,100.00
2022-11-13T05:56:22.172Z,100.00
2022-11-13T06:02:09.803Z,100.00
2022-11-13T06:07:57.507Z,100.00
2022-11-13T06:13:48.728Z,100.00
2022-11-13T06:19:36.652Z,100.00
2022-11-13T06:25:24.527Z,100.00
2022-11-13T06:31:15.711Z,100.00
2022-11-13T06:37:03.694Z,100.00
2022-11-13T06:42:51.697Z,100.00
2022-11-13T06:48:41.064Z,100.00
2022-11-13T06:54:28.733Z,100.00
2022-11-13T07:00:17.484Z,100.00
2022-11-13T07:06:09.037Z,100.00
2022-11-13T07:11:56.491Z,100.00
2022-11-13T07:17:44.588Z,100.00
2022-11-13T07:23:34.312Z,100.00
2022-11-13T07:29:22.503Z,100.00
2022-11-13T07:35:11.482Z,100.00
2022-11-13T07:41:01.259Z,100.00
2022-11-13T07:46:48.532Z,100.00
2022-11-13T07:52:36.616Z,100.00
2022-11-13T07:58:26.041Z,100.00
2022-11-13T08:04:13.443Z,100.00
2022-11-13T08:10:02.012Z,100.00
2022-11-13T08:15:51.039Z,100.00
2022-11-13T08:21:38.580Z,100.00
2022-11-13T08:27:26.934Z,100.00
2022-11-13T08:33:16.126Z,100.00
2022-11-13T08:39:04.774Z,100.00
2022-11-13T08:44:52.528Z,100.00
2022-11-13T08:50:42.019Z,100.00
2022-11-13T08:56:29.730Z,100.00
2022-11-13T09:02:17.547Z,100.00
2022-11-13T09:08:07.628Z,100.00
2022-11-13T09:13:56.031Z,100.00
2022-11-13T09:19:43.399Z,100.00
2022-11-13T09:25:37.881Z,100.00
2022-11-13T09:31:26.439Z,100.00
2022-11-13T09:37:15.695Z,100.00
2022-11-13T09:43:07.321Z,100.00
2022-11-13T09:48:58.568Z,100.00
2022-11-13T09:54:46.756Z,100.00
2022-11-13T10:00:36.571Z,100.00
2022-11-13T10:06:30.957Z,97.31
2022-11-13T10:12:18.997Z,98.64
2022-11-13T10:18:14.383Z,100.00
2022-11-13T10:24:11.756Z,99.47
2022-11-13T10:30:10.144Z,97.53
2022-11-13T10:36:08.747Z,88.90
2022-11-13T10:41:57.279Z,80.74
2022-11-13T10:48:03.776Z,79.53
2022-11-13T10:53:55.508Z,77.85
2022-11-13T10:59:46.160Z,82.63
2022-11-13T11:05:33.735Z,80.34
2022-11-13T11:11:40.529Z,75.99
2022-11-13T11:17:34.215Z,76.39
2022-11-13T11:23:29.337Z,75.27
2022-11-13T11:29:27.864Z,72.27
2022-11-13T11:35:20.380Z,72.15
2022-11-13T11:41:16.565Z,69.99
2022-11-13T11:47:12.424Z,70.37
2022-11-13T11:53:06.935Z,69.68
2022-11-13T11:59:10.055Z,68.48
2022-11-13T12:05:18.587Z,68.21
2022-11-13T12:11:16.656Z,68.58
2022-11-13T12:17:21.080Z,69.01
2022-11-13T12:23:24.605Z,70.42
2022-11-13T12:29:26.249Z,69.02
2022-11-13T12:35:18.823Z,70.08
2022-11-13T12:41:17.619Z,70.14
2022-11-13T12:47:05.872Z,72.04
2022-11-13T12:53:01.629Z,73.79
2022-11-13T13:05:20.095Z,77.76
2022-11-13T13:11:21.014Z,79.21
2022-11-13T13:17:19.312Z,81.80
2022-11-13T13:23:08.842Z,84.65
2022-11-13T13:28:58.108Z,87.99
2022-11-13T13:34:56.927Z,91.53
2022-11-13T13:40:59.108Z,94.61
2022-11-13T13:46:46.543Z,98.30
2022-11-13T13:52:37.957Z,100.00
2022-11-13T13:58:31.230Z,100.00
2022-11-13T14:04:21.355Z,100.00
2022-11-13T14:10:19.072Z,100.00
2022-11-13T14:16:08.234Z,100.00
2022-11-13T14:22:00.402Z,100.00
2022-11-13T14:27:50.371Z,100.00
2022-11-13T14:33:44.475Z,100.00
2022-11-13T14:39:35.689Z,100.00
2022-11-13T14:45:27.188Z,100.00
2022-11-13T14:51:24.500Z,100.00
2022-11-13T14:57:15.284Z,100.00
2022-11-13T15:03:07.242Z,100.00
2022-11-13T15:08:58.175Z,100.00
2022-11-13T15:14:46.697Z,100.00
2022-11-13T15:20:36.025Z,100.00
2022-11-13T15:26:24.043Z,100.00
2022-11-13T15:32:12.938Z,100.00
2022-11-13T15:38:01.866Z,100.00
2022-11-13T15:43:51.892Z,100.00
2022-11-13T15:49:46.934Z,100.00
2022-11-13T15:55:42.513Z,100.00
2022-11-13T16:01:31.359Z,100.00
2022-11-13T16:07:23.242Z,100.00
2022-11-13T16:13:12.381Z,100.00
2022-11-13T16:19:01.434Z,100.00
2022-11-13T16:24:49.712Z,100.00
2022-11-13T16:30:38.818Z,100.00
2022-11-13T16:36:27.659Z,100.00
2022-11-13T16:42:16.795Z,100.00
2022-11-13T16:48:06.503Z,100.00
2022-11-13T16:53:54.570Z,100.00
2022-11-13T16:59:42.574Z,100.00
2022-11-13T17:05:31.843Z,100.00
2022-11-13T17:11:19.983Z,100.00
2022-11-13T17:17:12.064Z,100.00
2022-11-13T17:23:01.759Z,100.00
2022-11-13T17:28:49.836Z,100.00
2022-11-13T17:34:37.745Z,100.00
2022-11-13T17:40:26.940Z,100.00
2022-11-13T17:46:16.188Z,100.00
2022-11-13T17:52:03.471Z,100.00
2022-11-13T17:57:53.242Z,100.00
2022-11-13T18:03:40.908Z,100.00
2022-11-13T18:09:28.434Z,100.00
2022-11-13T18:15:17.548Z,100.00
2022-11-13T18:21:22.411Z,100.00
2022-11-13T18:27:12.431Z,100.00
2022-11-13T18:33:01.760Z,100.00
2022-11-13T18:38:49.604Z,100.00
2022-11-13T18:44:37.734Z,100.00
2022-11-13T18:50:27.785Z,100.00
2022-11-13T18:56:17.574Z,100.00
2022-11-13T19:02:06.018Z,100.00
2022-11-13T19:07:54.840Z,100.00
2022-11-13T19:13:44.068Z,100.00
2022-11-13T19:19:31.769Z,100.00
2022-11-13T19:25:20.862Z,100.00
2022-11-13T19:31:09.105Z,100.00
2022-11-13T19:36:56.742Z,100.00
2022-11-13T19:42:45.848Z,100.00
2022-11-13T19:48:34.037Z,100.00
2022-11-13T19:54:22.652Z,100.00
2022-11-13T20:00:14.060Z,100.00
2022-11-13T20:06:02.495Z,100.00
2022-11-13T20:11:50.857Z,100.00
2022-11-13T20:17:40.025Z,100.00
2022-11-13T20:23:27.738Z,100.00
2022-11-13T20:29:15.695Z,100.00
2022-11-13T20:35:05.157Z,100.00
2022-11-13T20:40:53.570Z,100.00
2022-11-13T20:46:41.416Z,100.00
2022-11-13T20:52:30.010Z,100.00
2022-11-13T20:58:17.739Z,100.00
2022-11-13T21:04:05.775Z,100.00
2022-11-13T21:09:54.904Z,100.00
2022-11-13T21:15:42.453Z,100.00
2022-11-13T21:21:29.493Z,100.00
2022-11-13T21:27:17.808Z,100.00
2022-11-13T21:33:06.156Z,100.00
2022-11-13T21:38:55.707Z,100.00
2022-11-13T21:44:43.732Z,100.00
2022-11-13T21:50:31.516Z,100.00
2022-11-13T21:56:19.952Z,100.00
2022-11-13T22:02:11.353Z,100.00
2022-11-13T22:07:58.697Z,100.00
2022-11-13T22:13:46.601Z,100.00
2022-11-13T22:19:36.506Z,100.00
2022-11-13T22:25:24.525Z,100.00
2022-11-13T22:31:15.960Z,100.00
2022-11-13T22:37:04.781Z,100.00
2022-11-13T22:42:55.738Z,100.00
2022-11-13T22:48:46.373Z,100.00
2022-11-13T22:54:36.048Z,100.00
2022-11-13T23:00:23.738Z,100.00
2022-11-13T23:06:12.239Z,100.00
2022-11-13T23:12:01.835Z,100.00
2022-11-13T23:17:49.470Z,100.00
2022-11-13T23:23:38.145Z,100.00
2022-11-13T23:29:26.778Z,100.00
2022-11-13T23:41:15.429Z,100.00
2022-11-13T23:47:04.887Z,100.00
2022-11-13T23:52:52.442Z,100.00
2022-11-13T23:58:40.611Z,100.00
